sensor_id;sensor_type;location;lat;lon;timestamp;pressure;altitude;pressure_sealevel;temperature;humidity
5879;BME280;2965;42.640;23.370;2023-05-21T04:03:33;94163.03;;;13.74;100.00
5879;BME280;2965;42.640;23.370;2023-05-21T04:06:02;94151.50;;;13.75;100.00
5879;BME280;2965;42.640;23.370;2023-05-21T04:08:28;94153.47;;;13.86;100.00
5879;BME280;2965;42.640;23.370;2023-05-21T04:10:53;94154.66;;;13.91;100.00
5879;BME280;2965;42.640;23.370;2023-05-21T04:13:18;94155.00;;;13.94;100.00
5879;BME280;2965;42.640;23.370;2023-05-21T04:15:45;94148.69;;;14.02;100.00
5879;BME280;2965;42.640;23.370;2023-05-21T04:18:12;94148.44;;;14.10;100.00
5879;BME280;2965;42.640;23.370;2023-05-21T04:20:38;94148.44;;;14.10;100.00
5879;BME280;2965;42.640;23.370;2023-05-21T04:23:03;94145.41;;;14.13;100.00
5879;BME280;2965;42.640;23.370;2023-05-21T04:25:29;94139.03;;;14.21;100.00
5879;BME280;2965;42.640;23.370;2023-05-21T04:27:54;94145.88;;;14.28;100.00
5879;BME280;2965;42.640;23.370;2023-05-21T04:30:20;94141.78;;;14.32;100.00
5879;BME280;2965;42.640;23.370;2023-05-21T04:32:46;94143.75;;;14.44;100.00
5879;BME280;2965;42.640;23.370;2023-05-21T04:35:12;94142.47;;;14.53;100.00
5879;BME280;2965;42.640;23.370;2023-05-21T04:37:39;94135.63;;;14.45;100.00
5879;BME280;2965;42.640;23.370;2023-05-21T04:40:09;94135.81;;;14.50;100.00
5879;BME280;2965;42.640;23.370;2023-05-21T04:42:34;94133.94;;;14.57;100.00
5879;BME280;2965;42.640;23.370;2023-05-21T04:45:01;94137.50;;;14.63;100.00
5879;BME280;2965;42.640;23.370;2023-05-21T04:47:26;94137.78;;;14.55;100.00
5879;BME280;2965;42.640;23.370;2023-05-21T04:49:54;94147.75;;;14.53;100.00
5879;BME280;2965;42.640;23.370;2023-05-21T04:52:20;94178.50;;;14.52;100.00
5879;BME280;2965;42.640;23.370;2023-05-21T04:54:45;94186.13;;;14.60;100.00
5879;BME280;2965;42.640;23.370;2023-05-21T04:57:12;94195.31;;;14.76;100.00
5879;BME280;2965;42.640;23.370;2023-05-21T04:59:37;94204.03;;;14.95;100.00
5879;BME280;2965;42.640;23.370;2023-05-21T05:02:03;94199.91;;;15.06;100.00
5879;BME280;2965;42.640;23.370;2023-05-21T05:04:30;94189.78;;;15.21;100.00
5879;BME280;2965;42.640;23.370;2023-05-21T05:06:55;94192.50;;;15.33;100.00
5879;BME280;2965;42.640;23.370;2023-05-21T05:09:21;94191.09;;;15.49;100.00
5879;BME280;2965;42.640;23.370;2023-05-21T05:11:49;94178.56;;;15.62;100.00
5879;BME280;2965;42.640;23.370;2023-05-21T05:14:14;94167.53;;;15.72;100.00
5879;BME280;2965;42.640;23.370;2023-05-21T05:16:40;94203.31;;;15.61;100.00
5879;BME280;2965;42.640;23.370;2023-05-21T05:19:05;94234.16;;;15.79;100.00
5879;BME280;2965;42.640;23.370;2023-05-21T05:21:30;94235.59;;;15.94;100.00
5879;BME280;2965;42.640;23.370;2023-05-21T05:23:57;94232.34;;;16.10;100.00
5879;BME280;2965;42.640;23.370;2023-05-21T05:26:22;94220.91;;;16.16;100.00
5879;BME280;2965;42.640;23.370;2023-05-21T05:28:48;94263.13;;;16.16;100.00
5879;BME280;2965;42.640;23.370;2023-05-21T05:31:13;94265.78;;;16.28;100.00
5879;BME280;2965;42.640;23.370;2023-05-21T05:33:39;94256.81;;;16.47;100.00
5879;BME280;2965;42.640;23.370;2023-05-21T05:36:05;94244.72;;;16.39;100.00
5879;BME280;2965;42.640;23.370;2023-05-21T05:38:32;94249.38;;;16.56;100.00
5879;BME280;2965;42.640;23.370;2023-05-21T05:40:58;94242.84;;;16.70;100.00
5879;BME280;2965;42.640;23.370;2023-05-21T05:43:24;94243.13;;;16.80;100.00
5879;BME280;2965;42.640;23.370;2023-05-21T05:45:50;94274.25;;;16.78;100.00
5879;BME280;2965;42.640;23.370;2023-05-21T05:48:15;94267.56;;;16.76;100.00
5879;BME280;2965;42.640;23.370;2023-05-21T05:50:41;94278.56;;;16.73;100.00
5879;BME280;2965;42.640;23.370;2023-05-21T05:53:06;94275.50;;;16.76;100.00
5879;BME280;2965;42.640;23.370;2023-05-21T05:55:32;94278.72;;;16.89;100.00
5879;BME280;2965;42.640;23.370;2023-05-21T05:57:57;94275.03;;;16.90;100.00
5879;BME280;2965;42.640;23.370;2023-05-21T06:00:23;94290.91;;;16.90;100.00
5879;BME280;2965;42.640;23.370;2023-05-21T06:02:48;94291.97;;;17.01;100.00
5879;BME280;2965;42.640;23.370;2023-05-21T06:05:14;94277.84;;;17.19;100.00
5879;BME280;2965;42.640;23.370;2023-05-21T06:07:40;94288.97;;;17.21;100.00
5879;BME280;2965;42.640;23.370;2023-05-21T06:10:06;94281.75;;;17.28;100.00
5879;BME280;2965;42.640;23.370;2023-05-21T06:12:33;94289.31;;;17.48;100.00
5879;BME280;2965;42.640;23.370;2023-05-21T06:14:58;94276.69;;;17.62;100.00
5879;BME280;2965;42.640;23.370;2023-05-21T06:17:24;94287.00;;;17.52;100.00
5879;BME280;2965;42.640;23.370;2023-05-21T06:19:49;94279.44;;;17.44;100.00
5879;BME280;2965;42.640;23.370;2023-05-21T06:22:15;94278.50;;;17.26;100.00
5879;BME280;2965;42.640;23.370;2023-05-21T06:24:40;94273.72;;;17.23;100.00
5879;BME280;2965;42.640;23.370;2023-05-21T06:27:05;94282.78;;;17.27;100.00
5879;BME280;2965;42.640;23.370;2023-05-21T06:29:31;94275.31;;;17.24;100.00
5879;BME280;2965;42.640;23.370;2023-05-21T06:31:56;94270.72;;;17.31;100.00
5879;BME280;2965;42.640;23.370;2023-05-21T06:34:23;94281.41;;;17.36;100.00
5879;BME280;2965;42.640;23.370;2023-05-21T06:36:49;94263.69;;;17.37;100.00
5879;BME280;2965;42.640;23.370;2023-05-21T06:39:16;94269.09;;;17.54;100.00
5879;BME280;2965;42.640;23.370;2023-05-21T06:41:41;94263.81;;;17.42;100.00
5879;BME280;2965;42.640;23.370;2023-05-21T06:44:07;94264.25;;;17.51;100.00
5879;BME280;2965;42.640;23.370;2023-05-21T06:46:32;94262.19;;;17.53;100.00
5879;BME280;2965;42.640;23.370;2023-05-21T06:48:58;94265.84;;;17.52;100.00
5879;BME280;2965;42.640;23.370;2023-05-21T06:51:25;94269.66;;;17.56;100.00
5879;BME280;2965;42.640;23.370;2023-05-21T06:53:50;94275.75;;;17.68;100.00
5879;BME280;2965;42.640;23.370;2023-05-21T06:56:17;94276.69;;;17.62;100.00
5879;BME280;2965;42.640;23.370;2023-05-21T06:58:42;94281.50;;;17.42;100.00
5879;BME280;2965;42.640;23.370;2023-05-21T07:01:07;94280.13;;;17.51;100.00
5879;BME280;2965;42.640;23.370;2023-05-21T07:03:34;94273.09;;;17.56;100.00
5879;BME280;2965;42.640;23.370;2023-05-21T07:06:00;94277.69;;;17.61;100.00
5879;BME280;2965;42.640;23.370;2023-05-21T07:08:25;94264.34;;;17.68;100.00
5879;BME280;2965;42.640;23.370;2023-05-21T07:10:51;94259.19;;;17.84;100.00
5879;BME280;2965;42.640;23.370;2023-05-21T07:13:16;94256.28;;;17.98;100.00
5879;BME280;2965;42.640;23.370;2023-05-21T07:15:42;94259.72;;;17.98;100.00
5879;BME280;2965;42.640;23.370;2023-05-21T07:18:07;94260.25;;;18.12;100.00
5879;BME280;2965;42.640;23.370;2023-05-21T07:20:32;94251.44;;;18.23;100.00
5879;BME280;2965;42.640;23.370;2023-05-21T07:22:58;94272.41;;;18.41;100.00
5879;BME280;2965;42.640;23.370;2023-05-21T07:25:23;94278.81;;;18.57;100.00
5879;BME280;2965;42.640;23.370;2023-05-21T07:27:49;94276.13;;;18.69;100.00
5879;BME280;2965;42.640;23.370;2023-05-21T07:30:14;94271.16;;;18.89;100.00
5879;BME280;2965;42.640;23.370;2023-05-21T07:32:40;94282.75;;;19.00;100.00
5879;BME280;2965;42.640;23.370;2023-05-21T07:35:05;94279.69;;;18.92;100.00
5879;BME280;2965;42.640;23.370;2023-05-21T07:37:31;94285.63;;;18.99;100.00
5879;BME280;2965;42.640;23.370;2023-05-21T07:39:56;94275.34;;;19.19;100.00
5879;BME280;2965;42.640;23.370;2023-05-21T07:42:25;94276.59;;;19.33;100.00
5879;BME280;2965;42.640;23.370;2023-05-21T07:44:50;94277.56;;;19.44;100.00
5879;BME280;2965;42.640;23.370;2023-05-21T07:47:16;94291.06;;;19.42;100.00
5879;BME280;2965;42.640;23.370;2023-05-21T07:49:41;94281.22;;;19.60;100.00
5879;BME280;2965;42.640;23.370;2023-05-21T07:54:35;94284.50;;;19.84;97.81
5879;BME280;2965;42.640;23.370;2023-05-21T07:57:00;94284.13;;;19.75;99.75
5879;BME280;2965;42.640;23.370;2023-05-21T07:59:27;94282.03;;;19.77;99.67
5879;BME280;2965;42.640;23.370;2023-05-21T08:01:53;94285.72;;;19.76;90.70
5879;BME280;2965;42.640;23.370;2023-05-21T08:04:18;94283.78;;;19.88;96.62
5879;BME280;2965;42.640;23.370;2023-05-21T08:06:43;94281.78;;;20.01;88.85
5879;BME280;2965;42.640;23.370;2023-05-21T08:09:09;94281.88;;;20.06;86.54
5879;BME280;2965;42.640;23.370;2023-05-21T08:11:34;94285.78;;;20.25;84.82
5879;BME280;2965;42.640;23.370;2023-05-21T08:13:59;94284.31;;;20.34;84.03
5879;BME280;2965;42.640;23.370;2023-05-21T08:16:25;94287.06;;;20.45;82.48
5879;BME280;2965;42.640;23.370;2023-05-21T08:18:50;94286.59;;;20.48;75.72
5879;BME280;2965;42.640;23.370;2023-05-21T08:21:16;94276.94;;;20.41;77.59
5879;BME280;2965;42.640;23.370;2023-05-21T08:23:42;94276.94;;;20.41;74.05
5879;BME280;2965;42.640;23.370;2023-05-21T08:26:08;94276.94;;;20.41;81.75
5879;BME280;2965;42.640;23.370;2023-05-21T08:28:37;94278.06;;;20.46;79.40
5879;BME280;2965;42.640;23.370;2023-05-21T08:31:02;94279.56;;;20.36;83.39
5879;BME280;2965;42.640;23.370;2023-05-21T08:33:28;94276.81;;;20.31;77.91
5879;BME280;2965;42.640;23.370;2023-05-21T08:35:53;94274.81;;;20.16;80.80
5879;BME280;2965;42.640;23.370;2023-05-21T08:38:19;94278.00;;;20.19;86.39
5879;BME280;2965;42.640;23.370;2023-05-21T08:40:49;94282.75;;;20.38;83.04
5879;BME280;2965;42.640;23.370;2023-05-21T08:43:16;94276.44;;;20.45;78.51
5879;BME280;2965;42.640;23.370;2023-05-21T08:45:44;94288.41;;;20.69;73.22
5879;BME280;2965;42.640;23.370;2023-05-21T08:48:15;94286.50;;;20.91;73.99
5879;BME280;2965;42.640;23.370;2023-05-21T08:50:41;94288.28;;;21.13;72.49
5879;BME280;2965;42.640;23.370;2023-05-21T08:53:07;94278.84;;;21.32;82.76
5879;BME280;2965;42.640;23.370;2023-05-21T08:55:32;94278.88;;;21.37;72.03
5879;BME280;2965;42.640;23.370;2023-05-21T08:57:59;94277.69;;;21.23;78.26
5879;BME280;2965;42.640;23.370;2023-05-21T09:00:25;94274.53;;;21.26;77.78
5879;BME280;2965;42.640;23.370;2023-05-21T09:02:50;94284.19;;;21.32;72.25
5879;BME280;2965;42.640;23.370;2023-05-21T09:05:18;94278.63;;;21.07;71.71
5879;BME280;2965;42.640;23.370;2023-05-21T09:07:54;94282.97;;;21.18;72.49
5879;BME280;2965;42.640;23.370;2023-05-21T09:10:28;94282.13;;;21.45;80.97
5879;BME280;2965;42.640;23.370;2023-05-21T09:12:56;94285.38;;;21.52;74.53
5879;BME280;2965;42.640;23.370;2023-05-21T09:15:22;94284.28;;;21.48;78.63
5879;BME280;2965;42.640;23.370;2023-05-21T09:17:48;94277.78;;;21.33;77.10
5879;BME280;2965;42.640;23.370;2023-05-21T09:20:14;94295.28;;;21.61;78.81
5879;BME280;2965;42.640;23.370;2023-05-21T09:22:44;94285.38;;;21.52;66.72
5879;BME280;2965;42.640;23.370;2023-05-21T09:25:14;94288.88;;;21.57;62.62
5879;BME280;2965;42.640;23.370;2023-05-21T09:27:40;94287.53;;;21.60;63.42
5879;BME280;2965;42.640;23.370;2023-05-21T09:30:11;94290.19;;;21.55;63.24
5879;BME280;2965;42.640;23.370;2023-05-21T09:32:37;94286.44;;;21.56;61.01
5879;BME280;2965;42.640;23.370;2023-05-21T09:35:18;94283.31;;;21.64;61.76
5879;BME280;2965;42.640;23.370;2023-05-21T09:37:46;94284.41;;;21.68;59.58
5879;BME280;2965;42.640;23.370;2023-05-21T09:40:19;94275.47;;;21.42;60.32
5879;BME280;2965;42.640;23.370;2023-05-21T09:42:52;94276.25;;;21.42;57.49
5879;BME280;2965;42.640;23.370;2023-05-21T09:45:22;94283.31;;;21.27;60.24
5879;BME280;2965;42.640;23.370;2023-05-21T09:47:49;94280.91;;;21.62;58.75
5879;BME280;2965;42.640;23.370;2023-05-21T09:50:22;94278.56;;;21.71;57.68
5879;BME280;2965;42.640;23.370;2023-05-21T09:52:49;94275.50;;;22.00;59.26
5879;BME280;2965;42.640;23.370;2023-05-21T09:55:17;94274.03;;;22.14;53.94
5879;BME280;2965;42.640;23.370;2023-05-21T09:57:44;94272.97;;;22.25;60.37
5879;BME280;2965;42.640;23.370;2023-05-21T10:00:21;94274.63;;;22.36;60.06
5879;BME280;2965;42.640;23.370;2023-05-21T10:02:48;94270.91;;;22.48;54.75
5879;BME280;2965;42.640;23.370;2023-05-21T10:05:15;94264.56;;;22.54;62.54
5879;BME280;2965;42.640;23.370;2023-05-21T10:07:49;94260.09;;;22.95;63.43
5879;BME280;2965;42.640;23.370;2023-05-21T10:10:19;94269.44;;;23.08;56.37
5879;BME280;2965;42.640;23.370;2023-05-21T10:12:50;94263.78;;;23.45;58.01
5879;BME280;2965;42.640;23.370;2023-05-21T10:15:21;94258.19;;;23.41;54.14
5879;BME280;2965;42.640;23.370;2023-05-21T10:17:48;94255.81;;;23.30;54.64
5879;BME280;2965;42.640;23.370;2023-05-21T10:20:13;94251.81;;;22.97;51.16
5879;BME280;2965;42.640;23.370;2023-05-21T10:22:39;94248.56;;;22.69;54.93
5879;BME280;2965;42.640;23.370;2023-05-21T10:25:06;94254.63;;;22.39;51.48
5879;BME280;2965;42.640;23.370;2023-05-21T10:27:34;94260.53;;;21.83;50.48
5879;BME280;2965;42.640;23.370;2023-05-21T10:30:00;94252.16;;;21.59;51.66
5879;BME280;2965;42.640;23.370;2023-05-21T10:32:26;94251.66;;;21.62;54.08
5879;BME280;2965;42.640;23.370;2023-05-21T10:34:55;94244.41;;;21.53;55.50
5879;BME280;2965;42.640;23.370;2023-05-21T10:37:24;94244.88;;;21.39;56.06
5879;BME280;2965;42.640;23.370;2023-05-21T10:39:52;94244.50;;;21.31;57.82
5879;BME280;2965;42.640;23.370;2023-05-21T10:53:51;94238.72;;;21.86;60.67
5879;BME280;2965;42.640;23.370;2023-05-21T11:00:56;94233.00;;;21.57;72.48
5879;BME280;2965;42.640;23.370;2023-05-21T11:03:23;94239.25;;;21.36;66.71
5879;BME280;2965;42.640;23.370;2023-05-21T11:05:56;94241.19;;;21.51;68.94
5879;BME280;2965;42.640;23.370;2023-05-21T11:08:26;94238.50;;;21.46;68.81
5879;BME280;2965;42.640;23.370;2023-05-21T11:10:56;94237.59;;;21.30;77.46
5879;BME280;2965;42.640;23.370;2023-05-21T11:13:25;94230.47;;;21.35;81.65
5879;BME280;2965;42.640;23.370;2023-05-21T11:21:17;94215.81;;;21.85;77.64
5879;BME280;2965;42.640;23.370;2023-05-21T11:23:51;94218.00;;;21.99;63.20
5879;BME280;2965;42.640;23.370;2023-05-21T11:26:17;94220.78;;;22.19;66.27
5879;BME280;2965;42.640;23.370;2023-05-21T11:28:43;94217.00;;;22.10;62.49
5879;BME280;2965;42.640;23.370;2023-05-21T11:31:25;94221.41;;;21.79;61.98
5879;BME280;2965;42.640;23.370;2023-05-21T11:36:43;94214.63;;;21.56;69.32
5879;BME280;2965;42.640;23.370;2023-05-21T11:39:18;94207.50;;;21.29;75.16
5879;BME280;2965;42.640;23.370;2023-05-21T11:41:57;94208.63;;;21.33;76.71
5879;BME280;2965;42.640;23.370;2023-05-21T11:44:46;94210.03;;;21.41;89.40
5879;BME280;2965;42.640;23.370;2023-05-21T11:47:13;94210.81;;;21.41;100.00
5879;BME280;2965;42.640;23.370;2023-05-21T11:49:39;94201.78;;;21.42;100.00
5879;BME280;2965;42.640;23.370;2023-05-21T11:52:06;94195.41;;;21.44;100.00
5879;BME280;2965;42.640;23.370;2023-05-21T11:54:32;94195.66;;;21.42;100.00
5879;BME280;2965;42.640;23.370;2023-05-21T11:57:02;94191.50;;;21.19;100.00
5879;BME280;2965;42.640;23.370;2023-05-21T11:59:31;94202.72;;;20.89;100.00
5879;BME280;2965;42.640;23.370;2023-05-21T12:01:57;94196.03;;;20.81;100.00
5879;BME280;2965;42.640;23.370;2023-05-21T12:04:23;94182.50;;;20.83;100.00
5879;BME280;2965;42.640;23.370;2023-05-21T12:06:53;94191.72;;;20.75;100.00
5879;BME280;2965;42.640;23.370;2023-05-21T12:09:19;94185.69;;;20.85;100.00
5879;BME280;2965;42.640;23.370;2023-05-21T12:14:14;94179.50;;;20.74;100.00
5879;BME280;2965;42.640;23.370;2023-05-21T12:16:39;94180.09;;;20.81;100.00
5879;BME280;2965;42.640;23.370;2023-05-21T12:19:05;94172.88;;;20.77;100.00
5879;BME280;2965;42.640;23.370;2023-05-21T12:21:31;94184.09;;;20.84;100.00
5879;BME280;2965;42.640;23.370;2023-05-21T12:23:57;94181.91;;;20.76;100.00
5879;BME280;2965;42.640;23.370;2023-05-21T12:26:24;94184.34;;;20.82;100.00
5879;BME280;2965;42.640;23.370;2023-05-21T12:28:56;94184.22;;;20.67;100.00
5879;BME280;2965;42.640;23.370;2023-05-21T12:31:22;94184.97;;;20.62;100.00
5879;BME280;2965;42.640;23.370;2023-05-21T12:33:48;94182.53;;;20.56;100.00
5879;BME280;2965;42.640;23.370;2023-05-21T12:36:28;94186.03;;;20.61;100.00
5879;BME280;2965;42.640;23.370;2023-05-21T12:38:54;94182.53;;;20.56;100.00
5879;BME280;2965;42.640;23.370;2023-05-21T12:41:21;94178.81;;;20.57;100.00
5879;BME280;2965;42.640;23.370;2023-05-21T12:43:47;94178.28;;;20.55;100.00
5879;BME280;2965;42.640;23.370;2023-05-21T12:46:13;94176.63;;;20.49;100.00
5879;BME280;2965;42.640;23.370;2023-05-21T12:48:47;94178.97;;;20.18;100.00
5879;BME280;2965;42.640;23.370;2023-05-21T12:51:13;94161.19;;;20.19;100.00
5879;BME280;2965;42.640;23.370;2023-05-21T12:53:40;94177.88;;;20.14;100.00
5879;BME280;2965;42.640;23.370;2023-05-21T12:56:10;94178.06;;;20.34;100.00
5879;BME280;2965;42.640;23.370;2023-05-21T12:58:36;94168.56;;;20.38;100.00
5879;BME280;2965;42.640;23.370;2023-05-21T13:01:11;94172.00;;;20.12;100.00
5879;BME280;2965;42.640;23.370;2023-05-21T13:03:37;94165.50;;;20.25;100.00
5879;BME280;2965;42.640;23.370;2023-05-21T13:06:06;94156.13;;;20.17;100.00
5879;BME280;2965;42.640;23.370;2023-05-21T13:08:33;94166.16;;;20.10;100.00
5879;BME280;2965;42.640;23.370;2023-05-21T13:11:00;94157.31;;;20.31;100.00
5879;BME280;2965;42.640;23.370;2023-05-21T13:13:25;94153.28;;;20.51;100.00
5879;BME280;2965;42.640;23.370;2023-05-21T13:15:51;94146.16;;;20.56;100.00
5879;BME280;2965;42.640;23.370;2023-05-21T13:18:17;94160.94;;;20.79;100.00
5879;BME280;2965;42.640;23.370;2023-05-21T13:20:45;94158.91;;;20.91;100.00
5879;BME280;2965;42.640;23.370;2023-05-21T13:23:10;94166.59;;;20.93;100.00
5879;BME280;2965;42.640;23.370;2023-05-21T13:25:36;94163.19;;;20.98;100.00
5879;BME280;2965;42.640;23.370;2023-05-21T13:28:02;94155.59;;;21.16;100.00
5879;BME280;2965;42.640;23.370;2023-05-21T13:30:32;94154.31;;;21.29;100.00
5879;BME280;2965;42.640;23.370;2023-05-21T13:32:58;94155.38;;;21.28;100.00
5879;BME280;2965;42.640;23.370;2023-05-21T13:35:23;94157.09;;;21.45;100.00
5879;BME280;2965;42.640;23.370;2023-05-21T13:37:49;94152.31;;;21.47;100.00
5879;BME280;2965;42.640;23.370;2023-05-21T13:40:15;94156.53;;;21.42;100.00
5879;BME280;2965;42.640;23.370;2023-05-21T13:42:44;94170.38;;;21.39;94.07
5879;BME280;2965;42.640;23.370;2023-05-21T13:45:12;94172.91;;;21.24;85.22
5879;BME280;2965;42.640;23.370;2023-05-21T13:47:38;94172.47;;;21.37;99.27
5879;BME280;2965;42.640;23.370;2023-05-21T13:50:04;94174.38;;;21.42;98.30
5879;BME280;2965;42.640;23.370;2023-05-21T13:52:30;94172.56;;;21.48;96.76
5879;BME280;2965;42.640;23.370;2023-05-21T13:54:55;94173.69;;;21.62;98.73
5879;BME280;2965;42.640;23.370;2023-05-21T13:57:20;94163.53;;;21.59;100.00
5879;BME280;2965;42.640;23.370;2023-05-21T13:59:46;94161.69;;;21.64;100.00
5879;BME280;2965;42.640;23.370;2023-05-21T14:02:12;94165.84;;;21.40;100.00
5879;BME280;2965;42.640;23.370;2023-05-21T14:04:38;94166.50;;;21.20;100.00
5879;BME280;2965;42.640;23.370;2023-05-21T14:07:04;94163.72;;;20.95;100.00
5879;BME280;2965;42.640;23.370;2023-05-21T14:09:30;94160.84;;;21.06;100.00
5879;BME280;2965;42.640;23.370;2023-05-21T15:23:25;94151.44;;;20.88;100.00
5879;BME280;2965;42.640;23.370;2023-05-21T15:25:50;94161.22;;;20.83;100.00
5879;BME280;2965;42.640;23.370;2023-05-21T15:28:16;94159.31;;;20.73;100.00
5879;BME280;2965;42.640;23.370;2023-05-21T15:30:41;94152.94;;;20.74;100.00
5879;BME280;2965;42.640;23.370;2023-05-21T15:33:07;94153.59;;;20.54;100.00
5879;BME280;2965;42.640;23.370;2023-05-21T15:35:33;94158.59;;;20.51;100.00
5879;BME280;2965;42.640;23.370;2023-05-21T15:37:59;94152.16;;;20.47;100.00
5879;BME280;2965;42.640;23.370;2023-05-21T15:40:24;94159.03;;;20.42;100.00
5879;BME280;2965;42.640;23.370;2023-05-21T15:42:50;94155.47;;;20.05;100.00
5879;BME280;2965;42.640;23.370;2023-05-21T15:45:15;94173.22;;;19.77;100.00
5879;BME280;2965;42.640;23.370;2023-05-21T15:47:40;94177.00;;;19.81;95.62
5879;BME280;2965;42.640;23.370;2023-05-21T15:50:09;94183.59;;;19.79;87.48
5879;BME280;2965;42.640;23.370;2023-05-21T15:55:11;94178.47;;;19.94;77.90
5879;BME280;2965;42.640;23.370;2023-05-21T15:57:38;94179.03;;;20.23;77.82
5879;BME280;2965;42.640;23.370;2023-05-21T16:00:03;94186.13;;;20.45;73.79
5879;BME280;2965;42.640;23.370;2023-05-21T16:02:29;94190.78;;;20.54;72.70
5879;BME280;2965;42.640;23.370;2023-05-21T16:04:54;94192.50;;;20.44;74.27
5879;BME280;2965;42.640;23.370;2023-05-21T16:07:22;94191.25;;;20.24;74.21
5879;BME280;2965;42.640;23.370;2023-05-21T16:09:47;94194.25;;;20.06;75.46
5879;BME280;2965;42.640;23.370;2023-05-21T16:12:19;94183.41;;;19.85;74.73
5879;BME280;2965;42.640;23.370;2023-05-21T16:14:46;94187.66;;;19.86;77.08
5879;BME280;2965;42.640;23.370;2023-05-21T16:17:14;94191.25;;;19.75;76.09
5879;BME280;2965;42.640;23.370;2023-05-21T16:19:39;94193.16;;;19.58;79.24
5879;BME280;2965;42.640;23.370;2023-05-21T16:22:05;94192.88;;;19.37;80.06
5879;BME280;2965;42.640;23.370;2023-05-21T16:24:30;94189.16;;;19.38;79.43
5879;BME280;2965;42.640;23.370;2023-05-21T16:26:55;94194.47;;;19.38;78.42
5879;BME280;2965;42.640;23.370;2023-05-21T16:29:21;94194.34;;;19.28;78.66
5879;BME280;2965;42.640;23.370;2023-05-21T16:31:46;94200.84;;;19.21;78.67
5879;BME280;2965;42.640;23.370;2023-05-21T16:34:11;94204.50;;;18.98;79.80
5879;BME280;2965;42.640;23.370;2023-05-21T16:36:37;94202.00;;;19.08;80.10
5879;BME280;2965;42.640;23.370;2023-05-21T16:39:04;94211.06;;;19.12;84.90
5879;BME280;2965;42.640;23.370;2023-05-21T16:44:06;94208.69;;;18.94;80.81
5879;BME280;2965;42.640;23.370;2023-05-21T16:46:32;94215.91;;;18.98;80.86
5879;BME280;2965;42.640;23.370;2023-05-21T16:48:57;94215.09;;;18.81;81.95
5879;BME280;2965;42.640;23.370;2023-05-21T16:51:22;94214.72;;;18.72;81.81
5879;BME280;2965;42.640;23.370;2023-05-21T16:53:48;94221.50;;;18.68;81.90
5879;BME280;2965;42.640;23.370;2023-05-21T16:56:13;94218.22;;;18.61;81.87
5879;BME280;2965;42.640;23.370;2023-05-21T16:58:38;94225.13;;;18.62;82.45
5879;BME280;2965;42.640;23.370;2023-05-21T17:01:04;94230.28;;;18.69;82.22
5879;BME280;2965;42.640;23.370;2023-05-21T17:03:29;94224.88;;;18.63;82.43
5879;BME280;2965;42.640;23.370;2023-05-21T17:05:56;94232.19;;;18.56;83.19
5879;BME280;2965;42.640;23.370;2023-05-21T17:08:21;94227.69;;;18.57;83.16
5879;BME280;2965;42.640;23.370;2023-05-21T17:10:47;94232.59;;;18.65;85.76
5879;BME280;2965;42.640;23.370;2023-05-21T17:13:12;94242.81;;;18.73;84.26
5879;BME280;2965;42.640;23.370;2023-05-21T17:15:38;94241.44;;;18.71;86.11
5879;BME280;2965;42.640;23.370;2023-05-21T17:18:03;94245.47;;;18.73;88.29
5879;BME280;2965;42.640;23.370;2023-05-21T17:20:28;94238.41;;;18.79;90.28
5879;BME280;2965;42.640;23.370;2023-05-21T17:22:54;94232.31;;;18.78;92.29
5879;BME280;2965;42.640;23.370;2023-05-21T17:25:19;94236.97;;;18.88;94.23
5879;BME280;2965;42.640;23.370;2023-05-21T17:27:45;94236.78;;;18.95;96.51
5879;BME280;2965;42.640;23.370;2023-05-21T17:30:10;94230.22;;;18.97;96.72
5879;BME280;2965;42.640;23.370;2023-05-21T17:32:36;94235.84;;;19.01;96.17
5879;BME280;2965;42.640;23.370;2023-05-21T17:35:01;94235.03;;;19.00;100.00
5879;BME280;2965;42.640;23.370;2023-05-21T17:37:28;94244.66;;;18.89;100.00
5879;BME280;2965;42.640;23.370;2023-05-21T17:39:56;94241.00;;;18.90;100.00
5879;BME280;2965;42.640;23.370;2023-05-21T17:42:22;94247.09;;;18.91;100.00
5879;BME280;2965;42.640;23.370;2023-05-21T17:44:47;94246.75;;;18.87;100.00
5879;BME280;2965;42.640;23.370;2023-05-21T17:47:12;94246.75;;;18.87;100.00
5879;BME280;2965;42.640;23.370;2023-05-21T17:49:38;94249.00;;;18.79;100.00
5879;BME280;2965;42.640;23.370;2023-05-21T17:52:04;94255.50;;;18.71;100.00
5879;BME280;2965;42.640;23.370;2023-05-21T17:54:29;94258.88;;;18.38;100.00
5879;BME280;2965;42.640;23.370;2023-05-21T17:56:56;94255.59;;;18.19;100.00
5879;BME280;2965;42.640;23.370;2023-05-21T17:59:22;94263.66;;;18.24;100.00
5879;BME280;2965;42.640;23.370;2023-05-21T18:01:47;94254.56;;;18.20;100.00
5879;BME280;2965;42.640;23.370;2023-05-21T18:04:13;94263.31;;;18.21;100.00
5879;BME280;2965;42.640;23.370;2023-05-21T18:06:41;94264.13;;;18.21;100.00
5879;BME280;2965;42.640;23.370;2023-05-21T18:09:07;94261.47;;;18.21;100.00
5879;BME280;2965;42.640;23.370;2023-05-21T18:11:40;94259.97;;;18.25;100.00
5879;BME280;2965;42.640;23.370;2023-05-21T18:14:06;94263.66;;;18.24;100.00
5879;BME280;2965;42.640;23.370;2023-05-21T18:16:31;94264.59;;;18.18;100.00
5879;BME280;2965;42.640;23.370;2023-05-21T18:18:56;94275.31;;;18.11;100.00
5879;BME280;2965;42.640;23.370;2023-05-21T18:21:22;94275.44;;;18.05;100.00
5879;BME280;2965;42.640;23.370;2023-05-21T18:23:47;94277.78;;;17.89;100.00
5879;BME280;2965;42.640;23.370;2023-05-21T18:26:14;94289.78;;;17.80;100.00
5879;BME280;2965;42.640;23.370;2023-05-21T18:28:39;94289.63;;;17.87;100.00
5879;BME280;2965;42.640;23.370;2023-05-21T18:31:05;94288.84;;;17.86;100.00
5879;BME280;2965;42.640;23.370;2023-05-21T18:33:30;94291.84;;;17.78;100.00
5879;BME280;2965;42.640;23.370;2023-05-21T18:35:56;94289.66;;;17.63;100.00
5879;BME280;2965;42.640;23.370;2023-05-21T18:38:21;94291.41;;;17.58;100.00
5879;BME280;2965;42.640;23.370;2023-05-21T18:40:47;94287.50;;;17.49;100.00
5879;BME280;2965;42.640;23.370;2023-05-21T18:43:13;94280.81;;;17.34;100.00
5879;BME280;2965;42.640;23.370;2023-05-21T18:45:39;94286.81;;;17.18;100.00
5879;BME280;2965;42.640;23.370;2023-05-21T18:48:05;94288.41;;;17.19;100.00
5879;BME280;2965;42.640;23.370;2023-05-21T18:50:30;94292.66;;;17.20;100.00